createdAt,value
2023-03-10T00:02:53.481Z,2.07
2023-03-10T00:07:57.278Z,2.40
2023-03-10T00:12:59.520Z,3.53
2023-03-10T00:18:01.615Z,2.83
2023-03-10T00:23:05.464Z,4.03
2023-03-10T00:28:08.982Z,3.90
2023-03-10T00:33:11.322Z,5.03
2023-03-10T00:38:14.796Z,3.47
2023-03-10T00:43:16.960Z,3.37
2023-03-10T00:48:19.376Z,4.70
2023-03-10T00:53:22.659Z,7.43
2023-03-10T00:58:24.678Z,2.77
2023-03-10T01:03:27.524Z,3.67
2023-03-10T01:08:31.290Z,3.53
2023-03-10T01:13:33.764Z,2.40
2023-03-10T01:18:35.822Z,2.97
2023-03-10T01:23:39.668Z,4.27
2023-03-10T01:28:41.801Z,5.23
2023-03-10T01:33:44.601Z,2.97
2023-03-10T01:38:49.289Z,3.57
2023-03-10T01:43:52.616Z,2.00
2023-03-10T01:48:56.160Z,2.83
2023-03-10T01:53:59.798Z,4.30
2023-03-10T01:59:02.427Z,2.33
2023-03-10T02:04:09.435Z,3.60
2023-03-10T02:09:13.586Z,1.87
2023-03-10T02:14:15.915Z,6.73
2023-03-10T02:19:38.577Z,3.80
2023-03-10T02:24:52.496Z,5.70
2023-03-10T02:30:00.851Z,5.53
2023-03-10T02:35:04.728Z,3.50
2023-03-10T02:40:29.975Z,2.90
2023-03-10T02:45:37.178Z,1.87
2023-03-10T02:50:42.113Z,3.43
2023-03-10T02:55:44.424Z,2.37
2023-03-10T03:00:49.415Z,2.67
2023-03-10T03:05:52.140Z,1.77
2023-03-10T03:10:54.931Z,1.30
2023-03-10T03:15:58.498Z,2.73
2023-03-10T03:21:04.525Z,3.23
2023-03-10T03:26:06.932Z,1.97
2023-03-10T03:31:16.082Z,3.67
2023-03-10T03:36:18.711Z,3.00
2023-03-10T03:41:20.814Z,2.43
2023-03-10T03:46:24.650Z,2.50
2023-03-10T03:51:26.868Z,1.30
2023-03-10T03:56:28.986Z,3.00
2023-03-10T04:01:32.737Z,2.07
2023-03-10T04:06:34.838Z,2.33
2023-03-10T04:11:37.256Z,6.63
2023-03-10T04:16:41.002Z,3.43
2023-03-10T04:21:43.204Z,7.03
2023-03-10T04:26:46.386Z,1.90
2023-03-10T04:32:04.211Z,2.13
2023-03-10T04:37:07.388Z,2.00
2023-03-10T04:42:09.708Z,1.47
2023-03-10T04:47:13.228Z,2.90
2023-03-10T04:52:16.032Z,1.17
2023-03-10T04:57:18.507Z,3.10
2023-03-10T05:02:21.675Z,5.03
2023-03-10T05:07:23.861Z,3.73
2023-03-10T05:12:26.145Z,1.87
2023-03-10T05:17:30.417Z,2.80
2023-03-10T05:22:32.539Z,3.93
2023-03-10T05:27:35.661Z,2.50
2023-03-10T05:32:39.609Z,10.40
2023-03-10T05:37:44.390Z,4.40
2023-03-10T05:42:46.658Z,3.00
2023-03-10T05:47:50.299Z,4.63
2023-03-10T05:52:52.609Z,3.27
2023-03-10T05:57:55.667Z,6.63
2023-03-10T06:02:59.333Z,3.70
2023-03-10T06:08:01.670Z,3.57
2023-03-10T06:18:33.326Z,1.77
2023-03-10T06:23:36.483Z,3.27
2023-03-10T06:28:57.319Z,4.27
2023-03-10T06:34:06.060Z,4.83
2023-03-10T06:39:16.093Z,2.60
2023-03-10T06:44:19.162Z,2.40
2023-03-10T06:49:23.156Z,3.40
2023-03-10T06:54:25.029Z,5.60
2023-03-10T06:59:27.665Z,3.93
2023-03-10T07:04:32.659Z,4.17
2023-03-10T07:09:34.730Z,3.90
2023-03-10T07:14:36.949Z,2.97
2023-03-10T07:19:40.483Z,3.73
2023-03-10T07:24:42.475Z,3.60
2023-03-10T07:29:44.167Z,1.97
2023-03-10T07:34:47.531Z,6.60
2023-03-10T07:39:50.033Z,3.70
2023-03-10T07:44:52.514Z,4.50
2023-03-10T07:49:55.938Z,3.43
2023-03-10T07:54:58.277Z,2.27
2023-03-10T08:00:00.744Z,3.73
2023-03-10T08:05:04.638Z,5.07
2023-03-10T08:10:08.738Z,3.83
2023-03-10T08:15:13.656Z,4.73
2023-03-10T08:20:17.891Z,2.63
2023-03-10T08:25:20.336Z,1.80
2023-03-10T08:30:23.061Z,1.50
2023-03-10T08:35:26.832Z,1.93
2023-03-10T08:40:29.501Z,3.77
2023-03-10T08:45:35.392Z,4.50
2023-03-10T08:50:38.896Z,1.57
2023-03-10T08:55:41.744Z,1.10
2023-03-10T09:00:44.215Z,0.60
2023-03-10T09:05:48.030Z,0.63
2023-03-10T09:10:50.455Z,1.30
2023-03-10T09:15:53.177Z,0.33
2023-03-10T09:20:57.342Z,0.13
2023-03-10T09:25:59.684Z,0.40
2023-03-10T09:31:01.752Z,0.30
2023-03-10T09:36:07.494Z,4.13
2023-03-10T09:41:36.949Z,1.37
2023-03-10T09:46:48.595Z,0.87
2023-03-10T09:51:52.302Z,0.57
2023-03-10T09:56:55.791Z,1.20
2023-03-10T10:01:58.314Z,1.10
2023-03-10T10:07:03.485Z,2.00
2023-03-10T10:12:13.286Z,1.23
2023-03-10T10:17:24.523Z,2.43
2023-03-10T10:22:30.322Z,2.93
2023-03-10T10:27:33.036Z,0.93
2023-03-10T10:32:35.510Z,1.43
2023-03-10T10:37:43.133Z,0.80
2023-03-10T10:42:55.112Z,2.70
2023-03-10T10:47:57.523Z,1.27
2023-03-10T10:53:24.477Z,1.53
2023-03-10T10:58:30.949Z,1.00
2023-03-10T11:03:35.165Z,0.67
2023-03-10T11:08:40.930Z,0.30
2023-03-10T11:14:01.216Z,1.47
2023-03-10T11:19:11.293Z,1.47
2023-03-10T11:24:25.839Z,1.70
2023-03-10T11:29:39.837Z,1.07
2023-03-10T11:34:46.238Z,2.47
2023-03-10T11:39:56.181Z,1.50
2023-03-10T11:45:14.428Z,0.97
2023-03-10T11:50:27.802Z,0.17
2023-03-10T11:55:32.850Z,0.10
2023-03-10T12:00:40.081Z,0.00
2023-03-10T12:05:50.691Z,1.20
2023-03-10T12:11:00.297Z,0.00
2023-03-10T12:16:08.317Z,1.53
2023-03-10T12:21:23.214Z,0.47
2023-03-10T12:27:02.572Z,1.97
2023-03-10T12:32:05.594Z,0.20
2023-03-10T12:37:10.319Z,0.00
2023-03-10T12:42:32.642Z,0.37
2023-03-10T12:47:50.819Z,0.73
2023-03-10T12:52:59.993Z,0.10
2023-03-10T12:58:15.089Z,0.30
2023-03-10T13:03:27.468Z,0.20
2023-03-10T13:08:43.588Z,0.10
2023-03-10T13:13:51.942Z,1.07
2023-03-10T13:18:55.166Z,0.10
2023-03-10T13:23:57.831Z,2.10
2023-03-10T13:29:03.952Z,0.53
2023-03-10T13:34:21.353Z,0.10
2023-03-10T13:39:27.398Z,0.00
2023-03-10T13:44:35.219Z,0.00
2023-03-10T13:49:38.018Z,0.00
2023-03-10T13:54:43.024Z,0.00
2023-03-10T13:59:48.115Z,0.50
2023-03-10T14:04:52.560Z,0.10
2023-03-10T14:10:13.756Z,2.63
2023-03-10T14:15:25.816Z,0.10
2023-03-10T14:20:29.457Z,1.53
2023-03-10T14:25:31.600Z,0.50
2023-03-10T14:30:35.867Z,0.50
2023-03-10T14:35:38.149Z,0.50
2023-03-10T14:40:42.876Z,0.00
2023-03-10T14:45:48.018Z,0.00
2023-03-10T14:50:51.077Z,0.10
2023-03-10T14:55:56.845Z,0.97
2023-03-10T15:01:01.762Z,0.73
2023-03-10T15:06:04.264Z,0.00
2023-03-10T15:11:07.210Z,0.10
2023-03-10T15:16:15.704Z,0.20
2023-03-10T15:21:18.129Z,1.23
2023-03-10T15:26:20.352Z,2.63
2023-03-10T15:31:24.153Z,1.93
2023-03-10T15:36:27.066Z,1.17
2023-03-10T15:41:29.366Z,1.40
2023-03-10T15:46:33.597Z,0.27
2023-03-10T15:51:36.049Z,1.77
2023-03-10T15:56:38.540Z,3.57
2023-03-10T16:01:42.241Z,4.90
2023-03-10T16:06:44.429Z,7.90
2023-03-10T16:11:47.019Z,4.87
2023-03-10T16:16:51.216Z,4.37
2023-03-10T16:21:53.835Z,5.03
2023-03-10T16:26:55.822Z,4.17
2023-03-10T16:32:00.102Z,9.10
2023-03-10T16:37:03.882Z,3.97
2023-03-10T16:42:07.042Z,6.87
2023-03-10T16:47:13.256Z,4.40
2023-03-10T16:52:15.776Z,6.33
2023-03-10T16:57:18.307Z,4.73
2023-03-10T17:02:22.426Z,3.03
2023-03-10T17:07:24.990Z,6.33
2023-03-10T17:12:27.637Z,5.90
2023-03-10T17:17:33.873Z,7.23
2023-03-10T17:22:40.252Z,6.87
2023-03-10T17:27:43.903Z,7.43
2023-03-10T17:32:50.496Z,13.77
2023-03-10T17:37:52.744Z,10.30
2023-03-10T17:42:56.677Z,10.67
2023-03-10T17:48:03.662Z,7.37
2023-03-10T17:53:06.856Z,9.33
2023-03-10T17:58:10.500Z,7.83
2023-03-10T18:03:16.458Z,6.43
2023-03-10T18:08:20.357Z,8.53
2023-03-10T18:13:22.882Z,8.20
2023-03-10T18:18:27.725Z,10.57
2023-03-10T18:23:30.356Z,8.10
2023-03-10T18:28:33.588Z,9.50
2023-03-10T18:33:38.824Z,14.40
2023-03-10T18:38:43.409Z,14.83
2023-03-10T18:43:46.868Z,9.87
2023-03-10T18:48:56.395Z,7.90
2023-03-10T18:54:00.089Z,7.33
2023-03-10T18:59:03.331Z,12.97
2023-03-10T19:04:08.159Z,10.93
2023-03-10T19:09:12.914Z,14.30
2023-03-10T19:14:17.136Z,14.13
2023-03-10T19:19:22.928Z,7.90
2023-03-10T19:24:26.757Z,5.03
2023-03-10T19:29:32.165Z,3.93
2023-03-10T19:34:37.172Z,6.17
2023-03-10T19:39:43.837Z,3.13
2023-03-10T19:44:48.108Z,4.63
2023-03-10T19:49:53.678Z,3.10
2023-03-10T19:54:57.725Z,6.83
2023-03-10T20:00:01.065Z,3.77
2023-03-10T20:05:05.780Z,4.43
2023-03-10T20:10:16.804Z,6.77
2023-03-10T20:15:21.146Z,9.47
2023-03-10T20:20:27.168Z,4.13
2023-03-10T20:25:30.456Z,3.40
2023-03-10T20:30:35.129Z,2.67
2023-03-10T20:35:40.251Z,3.97
2023-03-10T20:40:43.963Z,3.97
2023-03-10T20:45:47.858Z,3.47
2023-03-10T20:50:59.342Z,3.20
2023-03-10T20:56:02.848Z,7.03
2023-03-10T21:01:06.775Z,2.20
2023-03-10T21:06:12.707Z,4.77
2023-03-10T21:11:17.165Z,4.13
2023-03-10T21:16:24.381Z,2.80
2023-03-10T21:21:32.258Z,3.70
2023-03-10T21:26:35.432Z,3.67
2023-03-10T21:31:38.606Z,3.60
2023-03-10T21:36:43.707Z,4.07
2023-03-10T21:41:47.369Z,2.77
2023-03-10T21:46:50.857Z,3.70
2023-03-10T21:51:54.393Z,4.90
2023-03-10T21:56:59.254Z,5.23
2023-03-10T22:02:01.985Z,4.07
2023-03-10T22:07:05.470Z,4.87
2023-03-10T22:12:08.227Z,3.40
2023-03-10T22:17:10.441Z,3.23
2023-03-10T22:22:13.779Z,3.70
2023-03-10T22:27:16.191Z,2.70
2023-03-10T22:32:18.553Z,0.77
2023-03-10T22:37:21.836Z,1.40
2023-03-10T22:42:24.155Z,1.20
2023-03-10T22:47:26.547Z,2.47
2023-03-10T22:52:29.916Z,3.23
2023-03-10T22:57:32.262Z,2.07
2023-03-10T23:02:34.790Z,1.20
2023-03-10T23:07:38.514Z,1.60
2023-03-10T23:12:41.259Z,0.53
2023-03-10T23:17:43.476Z,2.30
2023-03-10T23:22:48.008Z,1.47
2023-03-10T23:27:50.381Z,2.50
2023-03-10T23:32:53.702Z,2.47
2023-03-10T23:37:57.993Z,1.00
2023-03-10T23:43:02.816Z,2.43
2023-03-10T23:48:06.382Z,1.77
2023-03-10T23:53:12.250Z,0.90
2023-03-10T23:58:14.755Z,0.83
